This is the latest recevied weather packets stored in our database for station/object KM4CBK. If no packets are shown the sender has not sent any weather packets the latest 10 day(s).
| Time | Temp. | Humidity | Pressure | Rain* | Wind** | Luminosity | Snow |
|---|---|---|---|---|---|---|---|
| 1777403258 | 17.22° C | 99% | 1019.9 hPa | 11.43 mm | - | 10 W/m² | - |
| 1777402958 | 17.78° C | 98% | 1019.7 hPa | 17.53 mm | - | 10 W/m² | - |
| 1777402654 | 17.78° C | 96% | 1020.2 hPa | 4.83 mm | - | 7 W/m² | - |
| 1777402353 | 18.33° C | 95% | 1020.7 hPa | 0.51 mm | - | 5 W/m² | - |
| 1777402051 | 18.33° C | 94% | 1020.4 hPa | 0.51 mm | - | 7 W/m² | - |
| 1777401746 | 18.33° C | 93% | 1020.6 hPa | 0.51 mm | - | 10 W/m² | - |
| 1777401442 | 18.89° C | 91% | 1021.1 hPa | 0 mm | - | 1 W/m² | - |
| 1777401137 | 18.89° C | 90% | 1021.1 hPa | 0 mm | - | 1 W/m² | - |
| 1777400833 | 18.89° C | 91% | 1020.9 hPa | 0 mm | - | 4 W/m² | - |
| 1777400530 | 18.89° C | 90% | 1020.6 hPa | 0 mm | - | 6 W/m² | - |
| 1777400227 | 18.89° C | 89% | 1020.1 hPa | 0 mm | - | 7 W/m² | - |
| 1777399923 | 20° C | 86% | 1019.7 hPa | 0 mm | - | 9 W/m² | - |
| 1777399620 | 20° C | 85% | 1019.4 hPa | 0 mm | - | 20 W/m² | - |
| 1777399317 | 20.56° C | 84% | 1019.2 hPa | 0 mm | - | 83 W/m² | - |
| 1777399015 | 20° C | 84% | 1019.4 hPa | 0 mm | - | 126 W/m² | - |
| 1777398712 | 20.56° C | 83% | 1019.3 hPa | 0 mm | - | 110 W/m² | - |
| 1777398408 | 20.56° C | 84% | 1019.4 hPa | 0 mm | - | 131 W/m² | - |
| 1777398105 | 21.11° C | 84% | 1019.5 hPa | 0 mm | - | 81 W/m² | - |
| 1777397802 | 21.11° C | 84% | 1019.6 hPa | 0 mm | - | 70 W/m² | - |
| 1777397498 | 21.67° C | 83% | 1019.6 hPa | 0 mm | - | 86 W/m² | - |
| 1777397194 | 22.22° C | 82% | 1019.6 hPa | 0 mm | - | 133 W/m² | - |
| 1777396891 | 22.78° C | 82% | 1019.6 hPa | 0 mm | - | 218 W/m² | - |
| 1777396587 | 22.22° C | 83% | 1019.4 hPa | 0 mm | - | 374 W/m² | - |
| 1777396284 | 21.11° C | 85% | 1019.7 hPa | 0 mm | - | 242 W/m² | - |
| 1777395981 | 21.11° C | 84% | 1019.9 hPa | 0 mm | - | 99 W/m² | - |
* Rain latest hour (hover to see other rain measurements)
** Current wind speed in m/s (hover to see current wind gust speed)